Nearby METAR Reports

 

EBAW - Antwerpen, Belgium
Distance from station: NW 22km
Updated: 2022-08-10 19:20
Clear
Clear
 Wind from NE
Wind: NE 17 km/h
Temperature: 29°C
Dew Point: 10°C
Humidity: 31%
Barometer: 1022 hPa
Summary: Clear
Visibility: greater than 10 km
2022/08/10 17:20 EBAW 101720Z 04009KT 010V070 CAVOK 29/10 Q1022 NOSIG
EBBR - Brussel, Belgium
Distance from station: SW 24km
Updated: 2022-08-10 19:20
Clear
Clear
 Wind from NE
Wind: NE 19 km/h
Temperature: 29°C
Dew Point: 9°C
Humidity: 29%
Barometer: 1022 hPa
Summary: Clear
Visibility: greater than 10 km
2022/08/10 17:20 EBBR 101720Z 05010KT CAVOK 29/09 Q1022 NOSIG
 
EBDT - Schaffen, Belgium
Distance from station: ESE 26km
Updated: 2022-08-10 19:25
Clear
Clear
 Wind from NNE
Wind: NNE 15 km/h
Temperature: 29°C
Dew Point: 9°C
Humidity: 29%
Barometer: 1022 hPa
Clouds: Clear
Visibility: 10 km
2022/08/10 17:25 EBDT 101725Z AUTO 03008KT 9999 NCD 29/09 Q1022 BLU
EBBE - Beauvechain, Belgium
Distance from station: S 36km
Updated: 2022-08-10 19:25
Clear
Clear
 Wind from NE
Wind: NE 19 km/h
Temperature: 29°C
Dew Point: 10°C
Humidity: 31%
Barometer: 1022 hPa
Clouds: Clear
Visibility: 10 km
2022/08/10 17:25 EBBE 101725Z AUTO 04010KT 9999 NCD 29/10 Q1022 BLU
 
EHWO - Woensdrecht Rnla, Netherlands
Distance from station: NNW 50km
Updated: 2022-08-10 19:25
Clear
Clear
 Wind from NE
Wind: NE 20 km/h
Temperature: 29°C
Dew Point: 10°C
Humidity: 31%
Barometer: 1022 hPa
Clouds: Clear
Visibility: 10 km
2022/08/10 17:25 EHWO 101725Z AUTO 05011KT 010V100 9999 NCD 29/10 Q1022 BLU
EBBL - Kleine-Brogel, Belgium
Distance from station: ENE 54km
Updated: 2022-08-10 19:25
Few Clouds
Few Clouds
 Wind from ENE
Wind: ENE 17 km/h
Temperature: 29°C
Dew Point: 9°C
Humidity: 29%
Barometer: 1022 hPa
Clouds: Few Clouds
Visibility: 10 km
Cloud details: Few Clouds 8230 m
2022/08/10 17:25 EBBL 101725Z 06009KT 9999 FEW270 29/09 Q1022 BLU BLU
 
EHGR - Gilze-Rijen Rnla, Netherlands
Distance from station: NNE 57km
Updated: 2022-08-10 19:25
Clear
Clear
 Wind from ENE
Wind: ENE 15 km/h
Temperature: 30°C
Dew Point: 10°C
Humidity: 29%
Barometer: 1022 hPa
Clouds: Clear
Visibility: 10 km
2022/08/10 17:25 EHGR 101725Z AUTO 06008KT 360V110 9999 NCD 30/10 Q1022 BLU
EHEH - Eindhoven Rnlafb, Netherlands
Distance from station: NE 63km
Updated: 2022-08-10 19:25
Clear
Clear
 Wind from NE
Wind: NE 20 km/h
Temperature: 29°C
Dew Point: 9°C
Humidity: 29%
Barometer: 1022 hPa
Clouds: Clear
Visibility: 10 km
2022/08/10 17:25 EHEH 101725Z AUTO 05011KT 010V090 9999 NCD 29/09 Q1022 BLU NOSIG
 
EBCI - Charleroi, Belgium
Distance from station: SSW 70km
Updated: 2022-08-10 19:20
Clear
Clear
 Wind from NE
Wind: NE 24 km/h
Temperature: 28°C
Dew Point: 8°C
Humidity: 28%
Barometer: 1022 hPa
Summary: Clear
Visibility: greater than 10 km
2022/08/10 17:20 EBCI 101720Z 05013KT CAVOK 28/08 Q1022 NOSIG
EBLG - Bierset, Belgium
Distance from station: SE 72km
Updated: 2022-08-10 19:20
Clear
Clear
 Wind from NE
Wind: NE 22 km/h
Temperature: 29°C
Dew Point: 8°C
Humidity: 27%
Barometer: 1022 hPa
Summary: Clear
Visibility: greater than 10 km
2022/08/10 17:20 EBLG 101720Z 04012KT CAVOK 29/08 Q1022 NOSIG
Benelux Weer Netwerk cwop awekas hwa wcloud pwsweather wow wow